Time;durP1;ratioP1;P1;durP2;ratioP2;P2;SDS_P1;SDS_P2;PMS_P1;PMS_P2;Temp;Humidity;BMP_temperature;BMP_pressure;BME280_temperature;BME280_humidity;BME280_pressure;Samples;Min_cycle;Max_cycle;Signal;HPM_P1;HPM_P2
2021/06/18 00:00:30;;;;;;;2.27;2.17;;;26.30;78.10;;;;;;4995129;28;20535;-95
2021/06/18 00:03:21;;;;;;;1.97;1.87;;;26.30;78.10;;;;;;4995480;28;20452;-95
2021/06/18 00:05:48;;;;;;;2.20;2.10;;;26.30;78.00;;;;;;4993946;28;21005;-95
2021/06/18 00:08:15;;;;;;;1.80;1.70;;;26.30;78.10;;;;;;4994803;28;20457;-94
2021/06/18 00:10:41;;;;;;;1.90;1.80;;;26.30;78.20;;;;;;4994916;28;20811;-93
2021/06/18 00:13:08;;;;;;;2.40;2.30;;;26.30;78.20;;;;;;4995366;28;20539;-94
2021/06/18 00:15:35;;;;;;;2.27;1.73;;;26.30;78.10;;;;;;4995330;28;20451;-92
2021/06/18 00:18:02;;;;;;;2.03;1.93;;;26.20;78.10;;;;;;4995441;28;20969;-94
2021/06/18 00:20:30;;;;;;;2.00;1.90;;;26.40;78.20;;;;;;4994726;28;20440;-94
2021/06/18 00:22:57;;;;;;;2.40;2.30;;;26.40;78.30;;;;;;4994648;28;20964;-94
2021/06/18 00:25:24;;;;;;;2.17;2.03;;;26.30;78.10;;;;;;4995261;28;20575;-94
2021/06/18 00:27:52;;;;;;;2.60;2.50;;;26.30;78.10;;;;;;4994991;28;20447;-92
2021/06/18 00:30:20;;;;;;;2.30;2.20;;;26.30;78.10;;;;;;4995014;28;20448;-94
2021/06/18 00:32:47;;;;;;;2.03;1.93;;;26.30;78.00;;;;;;4994392;28;20472;-94
2021/06/18 00:35:14;;;;;;;2.00;1.90;;;26.40;78.20;;;;;;4995338;28;20475;-95
2021/06/18 00:37:42;;;;;;;2.20;2.07;;;26.30;78.10;;;;;;4994745;28;20451;-93
2021/06/18 00:40:09;;;;;;;2.07;1.97;;;26.30;78.10;;;;;;4998629;28;20550;-95
2021/06/18 00:42:36;;;;;;;2.30;2.20;;;26.30;78.20;;;;;;4999969;28;20455;-95
2021/06/18 00:45:05;;;;;;;2.03;1.93;;;26.40;78.20;;;;;;4999110;28;20483;-95
2021/06/18 00:47:32;;;;;;;2.10;2.00;;;26.30;78.00;;;;;;4998833;28;20446;-95
2021/06/18 00:49:59;;;;;;;1.90;1.80;;;26.30;78.10;;;;;;4998534;28;20455;-93
2021/06/18 00:52:26;;;;;;;2.13;2.03;;;26.30;78.10;;;;;;4998365;28;20454;-95
2021/06/18 00:54:54;;;;;;;2.10;2.00;;;26.30;78.10;;;;;;4999038;28;20539;-95
2021/06/18 00:57:22;;;;;;;1.93;1.83;;;26.30;78.10;;;;;;4999426;28;20459;-93
2021/06/18 00:59:48;;;;;;;2.07;1.97;;;26.30;78.00;;;;;;4999003;28;20453;-93
2021/06/18 01:02:15;;;;;;;1.90;1.80;;;26.30;78.00;;;;;;4999460;28;20434;-93
2021/06/18 01:04:43;;;;;;;2.00;1.90;;;26.30;78.00;;;;;;5000410;28;20491;-93
2021/06/18 01:07:14;;;;;;;2.20;2.10;;;26.30;78.90;;;;;;5005121;28;20420;-92
2021/06/18 01:09:48;;;;;;;2.63;2.53;;;26.30;78.00;;;;;;5016572;28;20514;-93
2021/06/18 01:12:20;;;;;;;2.03;1.93;;;26.30;78.00;;;;;;5015164;28;20474;-94
2021/06/18 01:14:58;;;;;;;2.70;2.50;;;26.30;78.00;;;;;;5007149;28;20452;-93
2021/06/18 01:17:29;;;;;;;2.33;2.23;;;26.30;78.00;;;;;;5021924;28;20464;-93
2021/06/18 01:20:12;;;;;;;2.43;2.33;;;26.30;78.00;;;;;;5021887;28;20462;-94
2021/06/18 01:22:41;;;;;;;2.03;1.93;;;26.40;78.00;;;;;;5020834;28;20495;-95
2021/06/18 01:25:19;;;;;;;2.37;2.27;;;26.30;77.90;;;;;;4997678;28;20494;-93
2021/06/18 01:27:53;;;;;;;1.90;1.80;;;26.30;77.90;;;;;;4998456;28;20456;-95
2021/06/18 01:30:23;;;;;;;2.10;2.00;;;26.40;78.10;;;;;;4997506;28;20424;-94
2021/06/18 01:32:58;;;;;;;2.20;2.10;;;26.30;77.90;;;;;;4997698;28;20567;-95
2021/06/18 01:35:29;;;;;;;2.13;2.03;;;26.50;78.10;;;;;;4997238;28;20853;-95
2021/06/18 01:37:59;;;;;;;2.20;2.00;;;26.40;78.00;;;;;;4997733;28;20450;-93
2021/06/18 01:40:29;;;;;;;1.90;1.80;;;26.40;78.10;;;;;;4997419;28;20451;-93
2021/06/18 01:42:57;;;;;;;2.20;2.00;;;26.30;77.90;;;;;;4997327;28;20926;-92
2021/06/18 01:45:27;;;;;;;2.10;2.00;;;26.30;78.00;;;;;;4997085;28;20914;-93
2021/06/18 01:47:56;;;;;;;1.80;1.70;;;26.30;77.90;;;;;;4997235;28;20500;-93
2021/06/18 01:50:26;;;;;;;2.07;1.97;;;26.30;77.90;;;;;;4996706;28;20446;-95
2021/06/18 01:52:58;;;;;;;2.20;2.10;;;26.30;77.90;;;;;;4997159;28;20455;-94
2021/06/18 01:55:26;;;;;;;1.83;1.73;;;26.30;77.80;;;;;;4998226;28;20436;-94
2021/06/18 01:57:55;;;;;;;1.83;1.73;;;26.30;77.90;;;;;;4997468;28;20530;-95
2021/06/18 02:00:23;;;;;;;2.27;2.17;;;26.50;78.10;;;;;;4997373;28;20940;-96
2021/06/18 02:02:52;;;;;;;2.10;2.00;;;26.30;77.90;;;;;;4996892;28;20924;-95
2021/06/18 02:05:20;;;;;;;2.20;2.10;;;26.30;77.80;;;;;;4995839;28;20487;-94
2021/06/18 02:07:49;;;;;;;2.00;1.90;;;26.30;77.90;;;;;;4996757;28;20872;-96
2021/06/18 02:10:17;;;;;;;1.90;1.80;;;26.30;78.80;;;;;;4996595;28;20454;-95
2021/06/18 02:12:46;;;;;;;2.00;1.90;;;26.40;78.00;;;;;;4996838;28;20444;-94
2021/06/18 02:15:14;;;;;;;2.50;2.30;;;26.50;78.00;;;;;;4997564;28;20460;-95
2021/06/18 02:17:43;;;;;;;1.90;1.80;;;26.30;78.00;;;;;;4996221;28;20444;-94
2021/06/18 02:20:13;;;;;;;2.27;2.17;;;26.30;77.80;;;;;;4996858;28;20499;-94
2021/06/18 02:22:41;;;;;;;1.80;1.70;;;26.30;77.80;;;;;;4995938;28;20487;-95
2021/06/18 02:25:10;;;;;;;2.57;2.47;;;26.30;77.90;;;;;;4996603;28;20487;-93
2021/06/18 02:27:39;;;;;;;2.10;2.00;;;26.30;77.90;;;;;;4996194;28;20451;-96
2021/06/18 02:30:08;;;;;;;2.30;2.20;;;26.30;77.80;;;;;;4996576;28;20447;-95
2021/06/18 02:32:36;;;;;;;2.10;2.00;;;26.30;77.90;;;;;;4996329;28;20440;-93
2021/06/18 02:35:03;;;;;;;2.03;1.93;;;26.30;77.80;;;;;;4996697;28;20478;-94
2021/06/18 02:37:32;;;;;;;1.80;1.70;;;26.30;77.80;;;;;;4995932;28;20451;-93
2021/06/18 02:39:59;;;;;;;2.20;2.10;;;26.50;78.00;;;;;;4996740;28;20448;-95
2021/06/18 02:42:26;;;;;;;2.23;2.13;;;26.40;77.90;;;;;;4996729;28;20455;-96
2021/06/18 02:44:54;;;;;;;2.20;2.10;;;26.50;77.90;;;;;;4996122;28;20825;-93
2021/06/18 02:47:25;;;;;;;2.07;1.97;;;26.30;77.70;;;;;;4996811;28;20904;-94
2021/06/18 02:49:58;;;;;;;2.20;2.10;;;26.50;77.90;;;;;;4995809;28;20452;-93
2021/06/18 02:52:30;;;;;;;2.10;2.00;;;26.50;77.90;;;;;;4996453;28;20447;-95
2021/06/18 02:55:06;;;;;;;1.93;1.83;;;26.30;77.70;;;;;;4996316;28;20477;-96
2021/06/18 02:57:46;;;;;;;2.03;1.93;;;26.40;77.80;;;;;;4996108;28;20442;-94
2021/06/18 03:00:14;;;;;;;1.80;1.70;;;26.30;77.80;;;;;;4996677;28;20447;-93
2021/06/18 03:02:47;;;;;;;2.00;1.90;;;26.30;77.70;;;;;;4994876;28;20436;-95
2021/06/18 03:05:17;;;;;;;2.00;1.90;;;26.30;77.70;;;;;;4996204;28;20542;-93
2021/06/18 03:07:50;;;;;;;2.00;1.90;;;26.30;77.70;;;;;;4996385;28;20558;-94
2021/06/18 03:10:24;;;;;;;2.20;2.10;;;26.50;77.90;;;;;;4996098;28;20448;-95
2021/06/18 03:12:53;;;;;;;1.80;1.70;;;26.30;77.60;;;;;;4996246;28;20444;-95
2021/06/18 03:15:21;;;;;;;1.77;1.67;;;26.30;77.70;;;;;;4995857;28;20448;-92
2021/06/18 03:17:49;;;;;;;1.80;1.70;;;26.50;77.90;;;;;;4995563;28;20439;-94
2021/06/18 03:20:21;;;;;;;1.90;1.80;;;26.30;77.70;;;;;;4995545;28;20999;-95
2021/06/18 03:22:51;;;;;;;2.10;2.00;;;26.50;77.90;;;;;;4995861;28;20472;-95
2021/06/18 03:25:21;;;;;;;1.97;1.87;;;26.30;77.70;;;;;;4996092;28;20951;-95
2021/06/18 03:27:49;;;;;;;2.00;1.90;;;26.30;77.70;;;;;;4995445;28;20448;-95
2021/06/18 03:30:18;;;;;;;1.90;1.80;;;26.50;77.90;;;;;;4996409;28;20456;-92
2021/06/18 03:32:47;;;;;;;1.77;1.67;;;26.30;77.70;;;;;;4995288;28;20451;-95
2021/06/18 03:35:15;;;;;;;1.70;1.60;;;26.30;77.60;;;;;;4995360;28;20467;-93
2021/06/18 03:37:43;;;;;;;1.83;1.73;;;26.30;77.60;;;;;;4995296;28;20531;-95
2021/06/18 03:40:11;;;;;;;2.40;2.30;;;26.40;77.70;;;;;;4994415;28;20447;-94
2021/06/18 03:42:39;;;;;;;2.10;2.00;;;26.30;77.60;;;;;;4995515;28;20441;-94
2021/06/18 03:45:08;;;;;;;1.87;1.77;;;26.40;77.70;;;;;;4995424;28;22375;-95
2021/06/18 03:47:37;;;;;;;1.87;1.77;;;26.30;77.60;;;;;;4995713;28;20516;-95
2021/06/18 03:50:06;;;;;;;2.07;1.97;;;26.30;77.60;;;;;;4995242;28;20461;-95
2021/06/18 03:52:33;;;;;;;2.40;2.30;;;26.30;77.60;;;;;;4995240;28;20508;-92
2021/06/18 03:55:00;;;;;;;2.20;2.10;;;26.40;77.70;;;;;;4995630;28;20928;-95
2021/06/18 03:57:27;;;;;;;2.30;2.20;;;26.30;77.60;;;;;;4996047;28;20869;-92
2021/06/18 04:00:06;;;;;;;2.30;2.20;;;26.30;77.60;;;;;;4995663;28;20448;-95
2021/06/18 04:02:34;;;;;;;1.87;1.77;;;26.40;77.60;;;;;;4995667;28;20880;-95
2021/06/18 04:05:03;;;;;;;2.40;2.20;;;26.50;77.80;;;;;;4994969;28;20483;-95
2021/06/18 04:07:31;;;;;;;2.20;2.10;;;26.30;77.60;;;;;;4995519;28;20452;-96
2021/06/18 04:09:59;;;;;;;2.20;2.10;;;26.40;77.70;;;;;;4995941;28;20445;-95
2021/06/18 04:12:26;;;;;;;2.10;2.00;;;26.30;77.60;;;;;;4994942;28;20440;-93
2021/06/18 04:14:55;;;;;;;2.00;1.90;;;26.30;77.60;;;;;;4998982;28;20576;-95
2021/06/18 04:17:23;;;;;;;2.50;2.40;;;26.30;77.60;;;;;;4999125;28;20436;-93
2021/06/18 04:19:52;;;;;;;1.90;1.80;;;26.30;77.60;;;;;;4999741;28;20448;-95
2021/06/18 04:22:28;;;;;;;2.10;2.00;;;26.30;77.60;;;;;;4998672;28;21046;-95
2021/06/18 04:24:56;;;;;;;2.00;1.90;;;26.50;77.70;;;;;;4999364;28;20856;-95
2021/06/18 04:27:23;;;;;;;2.00;1.90;;;26.50;77.70;;;;;;4999073;28;20483;-94
2021/06/18 04:29:50;;;;;;;2.03;1.93;;;26.50;77.80;;;;;;4998655;28;20459;-96
2021/06/18 04:32:18;;;;;;;2.30;2.20;;;26.50;77.70;;;;;;4999201;28;20880;-95
2021/06/18 04:34:46;;;;;;;2.00;1.90;;;26.30;77.60;;;;;;4998920;28;20470;-95
2021/06/18 04:37:13;;;;;;;2.20;2.10;;;26.30;77.60;;;;;;4998668;28;20452;-95
2021/06/18 04:39:40;;;;;;;2.00;1.90;;;26.40;77.70;;;;;;4999662;28;20448;-96
2021/06/18 04:42:07;;;;;;;2.20;2.10;;;26.30;77.60;;;;;;4998872;28;20458;-95
2021/06/18 04:44:34;;;;;;;1.80;1.70;;;26.30;77.60;;;;;;4999208;28;20448;-93
2021/06/18 04:47:01;;;;;;;2.37;2.23;;;26.40;77.60;;;;;;4998347;28;20570;-94
2021/06/18 04:49:28;;;;;;;2.00;1.90;;;26.50;77.70;;;;;;4998565;28;20542;-95
2021/06/18 04:51:56;;;;;;;2.00;1.90;;;26.30;77.60;;;;;;4998231;28;20459;-95
2021/06/18 04:54:23;;;;;;;2.10;2.00;;;26.30;77.50;;;;;;4998288;28;20485;-94
2021/06/18 04:56:50;;;;;;;2.10;2.00;;;26.40;77.60;;;;;;4998187;28;20452;-95
2021/06/18 04:59:19;;;;;;;2.10;2.00;;;26.40;77.70;;;;;;4998393;28;20459;-93
2021/06/18 05:01:46;;;;;;;2.03;1.93;;;26.40;77.60;;;;;;4999833;28;20483;-94
2021/06/18 05:04:13;;;;;;;2.00;1.90;;;26.30;77.60;;;;;;4999384;28;20454;-95
2021/06/18 05:06:40;;;;;;;2.17;2.07;;;26.40;77.60;;;;;;4998711;28;20487;-93
2021/06/18 05:09:08;;;;;;;2.10;2.00;;;26.50;77.70;;;;;;4998448;28;20451;-96
2021/06/18 05:11:35;;;;;;;2.27;2.17;;;26.30;77.60;;;;;;4999826;28;20531;-95
2021/06/18 05:14:02;;;;;;;2.60;2.43;;;26.30;78.40;;;;;;4999897;28;20450;-96
2021/06/18 05:16:30;;;;;;;2.10;2.00;;;26.30;77.60;;;;;;5001138;28;20458;-94
2021/06/18 05:18:57;;;;;;;1.97;1.87;;;26.30;77.60;;;;;;5001840;28;20455;-96
2021/06/18 05:21:25;;;;;;;1.70;1.60;;;26.30;77.60;;;;;;5015272;28;20538;-94
2021/06/18 05:23:52;;;;;;;2.50;2.40;;;26.30;77.60;;;;;;5017685;28;20451;-94
2021/06/18 05:26:20;;;;;;;2.03;1.93;;;26.40;77.60;;;;;;5013022;28;20907;-93
2021/06/18 05:28:47;;;;;;;1.87;1.77;;;26.30;77.60;;;;;;4997692;28;20927;-93
2021/06/18 05:31:14;;;;;;;2.03;1.93;;;26.30;77.60;;;;;;4997621;28;20538;-95
2021/06/18 05:33:41;;;;;;;2.00;1.90;;;26.30;77.60;;;;;;4997365;28;20962;-95
2021/06/18 05:36:08;;;;;;;2.57;2.43;;;26.20;77.50;;;;;;4997653;28;20479;-95
2021/06/18 05:38:35;;;;;;;2.03;1.93;;;26.20;77.50;;;;;;4996893;28;20456;-95
2021/06/18 05:41:04;;;;;;;2.20;2.10;;;26.30;77.60;;;;;;4997756;28;20456;-95
2021/06/18 05:43:32;;;;;;;2.17;2.07;;;26.30;77.60;;;;;;4997350;28;20536;-94
2021/06/18 05:46:00;;;;;;;2.03;1.93;;;26.50;77.80;;;;;;4997388;28;20477;-94
2021/06/18 05:48:27;;;;;;;1.87;1.77;;;26.40;77.60;;;;;;4997505;28;20451;-95
2021/06/18 05:50:54;;;;;;;1.90;1.80;;;26.30;77.60;;;;;;4997835;28;20450;-94
2021/06/18 05:53:21;;;;;;;1.80;1.70;;;26.30;77.60;;;;;;4997307;28;20444;-94
2021/06/18 05:55:49;;;;;;;2.17;2.07;;;26.30;77.60;;;;;;4997369;28;20940;-94
2021/06/18 05:58:16;;;;;;;2.20;2.10;;;26.30;77.60;;;;;;4997395;28;20455;-96
2021/06/18 06:00:44;;;;;;;2.40;2.20;;;26.50;77.80;;;;;;4997010;28;20459;-95
2021/06/18 06:03:11;;;;;;;1.73;1.63;;;26.30;77.60;;;;;;4997315;28;20444;-93
2021/06/18 06:05:39;;;;;;;2.07;1.97;;;26.30;77.60;;;;;;4997322;28;20471;-95
2021/06/18 06:08:10;;;;;;;2.00;1.90;;;26.30;77.70;;;;;;4996648;28;20973;-95
2021/06/18 06:10:36;;;;;;;1.90;1.80;;;26.50;77.80;;;;;;5010210;28;20431;-93
2021/06/18 06:13:03;;;;;;;2.20;2.10;;;26.30;77.70;;;;;;5020584;28;20451;-95
2021/06/18 06:15:30;;;;;;;2.20;2.10;;;26.50;77.90;;;;;;5018105;28;20436;-93
2021/06/18 06:17:58;;;;;;;1.80;1.70;;;26.30;77.70;;;;;;5010815;28;20467;-93
2021/06/18 06:20:25;;;;;;;2.03;1.83;;;26.40;77.80;;;;;;4999316;28;20449;-96
2021/06/18 06:22:52;;;;;;;2.13;2.03;;;26.30;77.80;;;;;;5000084;28;20979;-95
2021/06/18 06:25:19;;;;;;;2.10;2.00;;;26.30;77.80;;;;;;4998376;28;20440;-95
2021/06/18 06:27:46;;;;;;;3.27;2.10;;;26.40;77.90;;;;;;4997598;28;20484;-96
2021/06/18 06:30:13;;;;;;;2.20;2.10;;;26.30;77.80;;;;;;4997152;28;21074;-96
2021/06/18 06:32:40;;;;;;;2.20;2.10;;;26.30;77.80;;;;;;4997734;28;20454;-95
2021/06/18 06:35:10;;;;;;;2.20;2.10;;;26.40;77.90;;;;;;4996872;28;20832;-93
2021/06/18 06:37:37;;;;;;;2.10;2.00;;;26.40;78.00;;;;;;4997130;28;20830;-96
2021/06/18 06:40:06;;;;;;;2.30;2.20;;;26.30;77.90;;;;;;4997096;28;20458;-95
2021/06/18 06:42:32;;;;;;;2.40;2.30;;;26.30;78.00;;;;;;4997676;28;20444;-95
2021/06/18 06:44:59;;;;;;;2.30;2.20;;;26.40;78.10;;;;;;4996683;28;20446;-95
2021/06/18 06:47:26;;;;;;;2.00;1.90;;;26.40;78.10;;;;;;4996286;28;20484;-93
2021/06/18 06:49:53;;;;;;;2.30;2.17;;;26.30;78.00;;;;;;5002054;28;20828;-93
2021/06/18 06:52:22;;;;;;;2.20;2.10;;;26.30;78.00;;;;;;4996818;28;20448;-94
2021/06/18 06:54:49;;;;;;;2.10;2.00;;;26.30;78.10;;;;;;4996699;28;20471;-94
2021/06/18 06:57:18;;;;;;;2.50;2.40;;;26.50;78.30;;;;;;4996658;28;20452;-95
2021/06/18 06:59:44;;;;;;;2.47;2.37;;;26.30;78.10;;;;;;5000237;28;20486;-94
2021/06/18 07:02:11;;;;;;;2.40;2.20;;;26.30;78.20;;;;;;4996126;28;20450;-94
2021/06/18 07:04:38;;;;;;;2.43;2.33;;;26.30;79.00;;;;;;4995587;28;20463;-95
2021/06/18 07:07:05;;;;;;;2.40;2.30;;;26.30;78.20;;;;;;4995283;28;20484;-93
2021/06/18 07:12:37;;;;;;;2.63;2.50;;;26.20;78.20;;;;;;4996246;28;20423;-93
2021/06/18 07:15:07;;;;;;;2.17;2.07;;;26.40;78.50;;;;;;4996445;28;20452;-94
2021/06/18 07:17:34;;;;;;;2.30;2.20;;;26.30;78.40;;;;;;4995943;28;20938;-94
2021/06/18 07:20:02;;;;;;;2.30;2.20;;;26.30;78.40;;;;;;5005201;28;20538;-95
2021/06/18 07:22:30;;;;;;;2.20;2.10;;;26.30;78.40;;;;;;4995603;28;20479;-94
2021/06/18 07:24:59;;;;;;;1.90;1.80;;;26.30;78.40;;;;;;4995718;28;21043;-95
2021/06/18 07:27:26;;;;;;;2.47;2.37;;;26.50;78.60;;;;;;5135917;23;20512;-95
2021/06/18 07:29:54;;;;;;;2.57;2.47;;;26.30;78.40;;;;;;4995517;28;20448;-93
2021/06/18 07:32:21;;;;;;;2.10;2.00;;;26.30;78.50;;;;;;4996059;28;20518;-95
2021/06/18 07:34:48;;;;;;;2.30;2.20;;;26.30;78.50;;;;;;4995604;28;20460;-95
2021/06/18 07:37:15;;;;;;;2.43;2.33;;;26.30;78.50;;;;;;4995474;28;20455;-94
2021/06/18 07:39:42;;;;;;;2.50;2.40;;;26.50;78.70;;;;;;4995327;28;20444;-94
2021/06/18 07:42:11;;;;;;;2.53;2.43;;;26.30;78.50;;;;;;4996218;28;20925;-95
2021/06/18 07:44:39;;;;;;;2.47;2.27;;;26.30;78.50;;;;;;4995784;28;20455;-95
2021/06/18 07:47:06;;;;;;;2.40;2.30;;;26.50;78.80;;;;;;4994968;28;20483;-95
2021/06/18 07:49:33;;;;;;;2.50;2.40;;;26.30;78.50;;;;;;4995147;28;20458;-94
2021/06/18 07:52:01;;;;;;;2.37;2.27;;;26.30;78.60;;;;;;4995543;28;20558;-95
2021/06/18 07:54:28;;;;;;;2.50;2.40;;;26.50;78.80;;;;;;4995694;28;20903;-95
2021/06/18 07:56:55;;;;;;;2.10;2.00;;;26.30;78.60;;;;;;4995649;28;20486;-95
2021/06/18 07:59:23;;;;;;;2.47;2.37;;;26.50;78.80;;;;;;4995367;28;20452;-96
2021/06/18 08:01:50;;;;;;;2.80;2.60;;;26.50;78.90;;;;;;4995477;28;20535;-95
2021/06/18 08:04:17;;;;;;;2.30;2.20;;;26.50;78.90;;;;;;4994964;28;20558;-93
2021/06/18 08:06:44;;;;;;;2.83;2.63;;;26.50;78.90;;;;;;4995060;28;20472;-94
2021/06/18 08:09:11;;;;;;;2.20;2.10;;;26.40;78.90;;;;;;4995849;28;20458;-95
2021/06/18 08:11:37;;;;;;;2.50;2.30;;;26.40;78.80;;;;;;4995699;28;20531;-94
2021/06/18 08:14:05;;;;;;;2.50;2.40;;;26.50;78.90;;;;;;4995125;28;20779;-95
2021/06/18 08:16:33;;;;;;;2.40;2.30;;;26.40;78.80;;;;;;4995001;28;20459;-96
2021/06/18 08:19:00;;;;;;;2.50;2.30;;;26.40;78.80;;;;;;4995139;28;20450;-95
2021/06/18 08:21:27;;;;;;;2.60;2.50;;;26.40;78.80;;;;;;4995401;28;20459;-96
2021/06/18 08:23:54;;;;;;;2.80;2.60;;;26.40;78.80;;;;;;4996238;28;20453;-93
2021/06/18 08:26:21;;;;;;;2.33;2.23;;;26.40;78.90;;;;;;4995209;28;20803;-96
2021/06/18 08:28:48;;;;;;;2.77;2.60;;;26.50;79.00;;;;;;4994866;28;20559;-93
2021/06/18 08:31:15;;;;;;;2.57;2.47;;;26.40;79.70;;;;;;4995443;28;20452;-95
2021/06/18 08:33:43;;;;;;;2.97;2.77;;;26.40;78.90;;;;;;4994832;28;20458;-95
2021/06/18 08:36:10;;;;;;;3.10;2.90;;;26.50;79.00;;;;;;4995701;28;20493;-95
2021/06/18 08:38:39;;;;;;;3.10;2.90;;;26.40;78.90;;;;;;4995079;28;20920;-94
2021/06/18 08:41:07;;;;;;;2.33;2.23;;;26.40;79.00;;;;;;4995775;28;20452;-94
2021/06/18 08:43:35;;;;;;;2.47;2.37;;;26.40;79.00;;;;;;5000772;28;20449;-95
2021/06/18 08:46:03;;;;;;;2.73;2.53;;;26.40;79.00;;;;;;4996386;28;20440;-96
2021/06/18 08:48:30;;;;;;;2.70;2.60;;;26.40;79.00;;;;;;4995218;28;20880;-95
2021/06/18 08:51:00;;;;;;;2.73;2.53;;;26.40;79.00;;;;;;4995324;28;20884;-95
2021/06/18 08:53:27;;;;;;;2.80;2.70;;;26.50;79.10;;;;;;4995756;28;20456;-94
2021/06/18 08:55:55;;;;;;;2.40;2.30;;;26.50;79.20;;;;;;4995337;28;20927;-96
2021/06/18 08:58:23;;;;;;;2.67;2.47;;;26.40;79.10;;;;;;4997485;28;20452;-96
2021/06/18 09:00:51;;;;;;;2.60;2.50;;;26.40;79.10;;;;;;4999009;28;20449;-96
2021/06/18 09:03:41;;;;;;;2.87;2.67;;;26.50;79.20;;;;;;4998768;28;20483;-94
2021/06/18 09:06:30;;;;;;;3.23;3.03;;;26.40;78.90;;;;;;4999437;28;20444;-95
2021/06/18 09:09:22;;;;;;;2.70;2.50;;;26.40;79.00;;;;;;4998698;28;20523;-95
2021/06/18 09:11:50;;;;;;;2.97;2.80;;;26.40;79.10;;;;;;4998623;28;20458;-94
2021/06/18 09:14:29;;;;;;;2.93;2.73;;;26.50;79.30;;;;;;4998916;28;20519;-93
2021/06/18 09:17:12;;;;;;;2.90;2.80;;;26.40;79.20;;;;;;4999220;28;20452;-94
2021/06/18 09:19:42;;;;;;;3.00;2.80;;;26.50;79.20;;;;;;4999527;28;20440;-92
2021/06/18 09:22:12;;;;;;;2.70;2.50;;;26.40;80.00;;;;;;4998847;28;20459;-94
2021/06/18 09:24:41;;;;;;;2.53;2.43;;;26.40;79.20;;;;;;4999615;28;20448;-93
2021/06/18 09:27:09;;;;;;;2.87;2.77;;;26.40;79.20;;;;;;4999338;28;20479;-95
2021/06/18 09:29:37;;;;;;;3.20;3.00;;;26.40;79.20;;;;;;5000673;28;20787;-94
2021/06/18 09:32:06;;;;;;;2.93;2.73;;;26.50;80.20;;;;;;5005365;28;20460;-93
2021/06/18 09:34:40;;;;;;;3.27;3.07;;;26.40;79.30;;;;;;5002644;28;20475;-93
2021/06/18 09:37:33;;;;;;;2.27;2.17;;;26.30;79.20;;;;;;5000096;28;20445;-93
2021/06/18 09:40:12;;;;;;;2.77;2.63;;;26.50;79.30;;;;;;4998581;28;20449;-93
2021/06/18 09:42:50;;;;;;;2.50;2.40;;;26.50;79.40;;;;;;4998489;28;20473;-94
2021/06/18 09:45:18;;;;;;;2.70;2.60;;;26.50;79.40;;;;;;4997796;28;20439;-93
2021/06/18 09:47:46;;;;;;;2.57;2.47;;;26.50;79.50;;;;;;4997545;28;21036;-93
2021/06/18 09:50:44;;;;;;;3.00;2.80;;;26.40;79.40;;;;;;4997731;28;20449;-94
2021/06/18 09:53:18;;;;;;;3.00;2.80;;;26.50;79.50;;;;;;4999327;28;20452;-93
2021/06/18 09:55:47;;;;;;;2.67;2.57;;;26.40;79.50;;;;;;4997255;28;20514;-95
2021/06/18 09:58:30;;;;;;;2.67;2.57;;;26.40;79.50;;;;;;4997150;28;20928;-95
2021/06/18 10:01:13;;;;;;;2.83;2.63;;;26.40;79.50;;;;;;4997906;28;20441;-94
2021/06/18 10:03:57;;;;;;;3.10;3.00;;;26.50;79.50;;;;;;4997764;28;20443;-94
2021/06/18 10:06:24;;;;;;;2.80;2.70;;;26.50;79.50;;;;;;4997058;28;20448;-93
2021/06/18 10:08:54;;;;;;;3.20;3.00;;;26.40;79.50;;;;;;4996582;28;20485;-94
2021/06/18 10:11:21;;;;;;;2.90;2.70;;;26.50;79.60;;;;;;4996614;28;20440;-93
2021/06/18 10:13:48;;;;;;;2.77;2.63;;;26.40;79.50;;;;;;4996920;28;20455;-94
2021/06/18 10:16:18;;;;;;;2.90;2.73;;;26.40;79.50;;;;;;4996827;28;20439;-94
2021/06/18 10:18:44;;;;;;;3.43;3.23;;;26.40;79.50;;;;;;4997568;28;20467;-94
2021/06/18 10:21:12;;;;;;;2.80;2.70;;;26.50;79.60;;;;;;4997427;28;20938;-94
2021/06/18 10:23:40;;;;;;;3.17;3.00;;;26.50;79.60;;;;;;4996635;28;20447;-93
2021/06/18 10:26:12;;;;;;;2.90;2.80;;;26.60;79.70;;;;;;4997216;28;20456;-94
2021/06/18 10:28:39;;;;;;;3.30;3.10;;;26.50;79.60;;;;;;4996596;28;20515;-94
2021/06/18 10:31:08;;;;;;;2.93;2.80;;;26.50;80.40;;;;;;4996662;28;20480;-95
2021/06/18 10:33:37;;;;;;;3.30;3.10;;;26.50;79.60;;;;;;4996441;28;20518;-93
2021/06/18 10:36:22;;;;;;;2.70;2.60;;;26.50;79.60;;;;;;4996751;28;20448;-93
2021/06/18 10:39:03;;;;;;;2.73;2.63;;;26.50;79.50;;;;;;4996576;28;20901;-93
2021/06/18 10:41:31;;;;;;;3.20;3.00;;;26.50;79.60;;;;;;4996799;28;20444;-93
2021/06/18 10:44:00;;;;;;;3.60;3.30;;;26.60;79.80;;;;;;4996149;28;20795;-94
2021/06/18 10:46:29;;;;;;;2.90;2.70;;;26.60;79.80;;;;;;4996548;28;20459;-93
2021/06/18 10:49:08;;;;;;;2.87;2.77;;;26.50;79.70;;;;;;4996825;28;20885;-94
2021/06/18 10:51:43;;;;;;;3.33;3.13;;;26.50;79.70;;;;;;4996056;28;20447;-93
2021/06/18 10:54:13;;;;;;;3.33;3.13;;;26.50;79.70;;;;;;4996167;28;21002;-93
2021/06/18 10:57:04;;;;;;;2.97;2.80;;;26.60;79.90;;;;;;4996653;28;20782;-92
2021/06/18 10:59:37;;;;;;;3.10;2.90;;;26.50;79.70;;;;;;4991308;28;20491;-94
2021/06/18 11:02:31;;;;;;;3.50;3.30;;;26.50;79.80;;;;;;5016379;28;20459;-92
2021/06/18 11:05:01;;;;;;;3.00;2.80;;;26.50;79.70;;;;;;5019754;28;20456;-92
2021/06/18 11:07:30;;;;;;;3.00;2.80;;;26.50;79.80;;;;;;5019743;28;20455;-91
2021/06/18 11:09:58;;;;;;;3.27;3.00;;;26.60;79.80;;;;;;4999347;28;20455;-95
2021/06/18 11:12:44;;;;;;;2.70;2.50;;;26.50;79.80;;;;;;4997304;28;20475;-94
2021/06/18 11:15:37;;;;;;;2.63;2.50;;;26.50;79.70;;;;;;4996449;28;20443;-92
2021/06/18 11:18:11;;;;;;;3.00;2.80;;;26.50;79.80;;;;;;4995566;28;20450;-94
2021/06/18 11:21:02;;;;;;;3.17;2.97;;;26.50;80.00;;;;;;4996207;28;20459;-92
2021/06/18 11:23:32;;;;;;;2.77;2.57;;;26.50;79.90;;;;;;4994906;28;20428;-93
2021/06/18 11:26:01;;;;;;;2.90;2.60;;;26.50;80.00;;;;;;4995135;28;20480;-94
2021/06/18 11:28:36;;;;;;;3.03;2.93;;;26.60;80.00;;;;;;4995073;28;20978;-94
2021/06/18 11:31:06;;;;;;;2.97;2.87;;;26.50;80.30;;;;;;4995614;28;20923;-95
2021/06/18 11:33:55;;;;;;;2.97;2.77;;;26.60;80.10;;;;;;4996081;28;20847;-94
2021/06/18 11:36:52;;;;;;;3.17;2.90;;;26.50;79.80;;;;;;4995221;28;20458;-94
2021/06/18 11:39:26;;;;;;;3.50;3.30;;;26.50;79.80;;;;;;4995765;28;20476;-94
2021/06/18 11:42:04;;;;;;;3.00;2.80;;;26.50;80.00;;;;;;4995825;28;20507;-94
2021/06/18 11:44:33;;;;;;;2.93;2.73;;;26.50;79.90;;;;;;4995649;28;20449;-94
2021/06/18 11:47:01;;;;;;;3.03;2.83;;;26.50;80.00;;;;;;4995666;28;20535;-93
2021/06/18 11:49:33;;;;;;;2.83;2.73;;;26.50;80.00;;;;;;4995865;28;20515;-95
2021/06/18 11:52:09;;;;;;;2.63;2.53;;;26.50;80.00;;;;;;4995255;28;20440;-93
2021/06/18 11:54:42;;;;;;;3.43;3.00;;;26.50;79.90;;;;;;4996392;28;20499;-93
2021/06/18 11:57:27;;;;;;;2.90;2.70;;;26.50;79.90;;;;;;4996210;28;20981;-93
2021/06/18 11:59:59;;;;;;;2.90;2.70;;;26.50;80.40;;;;;;4995658;28;20444;-93
2021/06/18 12:02:31;;;;;;;2.60;2.50;;;26.50;80.00;;;;;;4995082;28;20450;-95
2021/06/18 12:05:05;;;;;;;3.40;3.20;;;26.50;80.00;;;;;;4995549;28;20464;-93
2021/06/18 12:07:32;;;;;;;3.13;2.93;;;26.50;80.00;;;;;;4995186;28;20443;-94
2021/06/18 12:10:00;;;;;;;2.53;2.43;;;26.50;80.00;;;;;;4994871;28;20455;-94
2021/06/18 12:12:27;;;;;;;3.00;2.80;;;26.50;80.00;;;;;;4995040;28;20448;-94
2021/06/18 12:14:57;;;;;;;2.70;2.50;;;26.50;80.00;;;;;;4995477;28;20487;-95
2021/06/18 12:17:24;;;;;;;2.93;2.73;;;26.70;80.10;;;;;;4995837;28;20911;-93
2021/06/18 12:19:53;;;;;;;2.67;2.53;;;26.60;80.20;;;;;;4994472;28;20927;-94
2021/06/18 12:22:22;;;;;;;2.63;2.53;;;26.50;80.00;;;;;;4995006;28;20455;-94
2021/06/18 12:24:51;;;;;;;2.90;2.70;;;26.60;80.10;;;;;;4995323;28;20443;-94
2021/06/18 12:27:21;;;;;;;2.93;2.73;;;26.60;80.10;;;;;;4994528;28;20437;-93
2021/06/18 12:29:52;;;;;;;3.27;3.07;;;26.60;80.10;;;;;;4994353;28;20464;-93
2021/06/18 12:32:22;;;;;;;2.80;2.70;;;26.60;80.10;;;;;;4995458;28;20444;-94
2021/06/18 12:34:51;;;;;;;3.27;3.07;;;26.70;80.20;;;;;;4997436;28;20469;-95
2021/06/18 12:37:19;;;;;;;3.00;2.80;;;26.60;80.10;;;;;;4998789;28;20444;-95
2021/06/18 12:39:55;;;;;;;2.93;2.83;;;26.60;80.10;;;;;;4998305;28;20452;-94
2021/06/18 12:42:26;;;;;;;3.27;3.07;;;26.60;80.10;;;;;;4998451;28;20455;-95
2021/06/18 12:45:09;;;;;;;3.47;3.27;;;26.60;80.20;;;;;;4998356;28;20504;-93
2021/06/18 12:47:39;;;;;;;3.33;3.13;;;26.60;80.10;;;;;;4997297;28;20444;-94
2021/06/18 12:50:28;;;;;;;3.30;3.10;;;26.60;80.30;;;;;;4998054;28;20452;-95
2021/06/18 12:52:57;;;;;;;3.17;2.97;;;26.60;80.10;;;;;;4998516;28;20527;-95
2021/06/18 12:55:33;;;;;;;2.80;2.60;;;26.60;80.20;;;;;;4998090;28;20980;-93
2021/06/18 12:58:07;;;;;;;3.27;3.07;;;26.60;80.20;;;;;;4999061;28;20447;-93
2021/06/18 13:00:42;;;;;;;2.70;2.60;;;26.60;80.20;;;;;;4998936;28;20451;-93
2021/06/18 13:03:11;;;;;;;2.63;2.53;;;26.60;80.30;;;;;;4998212;28;20435;-95
2021/06/18 13:05:38;;;;;;;2.37;2.27;;;26.70;80.30;;;;;;4998135;28;20819;-93